Mizpah, Montana
Current Conditions -  °F | °C
As of 9:53 PM on Sunday 21 Dec 2014 (Local Time) from KMLS Reporting Station
Clear Clear  
Wind Chill: 29°   Ceiling: Unl
Heat Index: 39°   Visibility: 10mi
Dew Point: 32°   Wind: 21mph
Humidity: 76%   Direction: 290°WNW
Pressure: 29.52"   Gusts: 29mph
Location:  46.24°N, 105.27°W
Report Text: KMLS 220453Z AUTO 29018G25KT 10SM CLR 04/00 A2952 RMK AO2 PK WND 28030/0415 SLP012 T00390000
Loading
Personal Weather Stations






























Interactive Weather Map New forecast layout! Learn more

10-Day Weather Forecast

Advertisements
Track Severe Weather on mobile